Time;durP1;ratioP1;P1;durP2;ratioP2;P2;SDS_P1;SDS_P2;PMS_P1;PMS_P2;Temp;Humidity;BMP_temperature;BMP_pressure;BME280_temperature;BME280_humidity;BME280_pressure;Samples;Min_cycle;Max_cycle;Signal;HPM_P1;HPM_P2
2022/07/01 00:02:18;;;;;;;7.57;1.10;;;;;;;16.19;87.07;99006.06;4953816;29;20513;-51
2022/07/01 00:04:43;;;;;;;7.40;1.63;;;;;;;16.27;87.42;98999.63;4953782;28;20082;-50
2022/07/01 00:07:11;;;;;;;12.10;1.58;;;;;;;16.21;87.41;98995.25;4953706;29;20030;-51
2022/07/01 00:09:37;;;;;;;12.27;1.20;;;;;;;16.11;87.11;99001.91;4953764;29;20031;-51
2022/07/01 00:12:03;;;;;;;8.00;0.90;;;;;;;16.00;87.00;99005.34;4952368;29;20030;-51
2022/07/01 00:14:30;;;;;;;7.93;1.08;;;;;;;15.92;86.99;99024.22;4953611;28;20041;-51
2022/07/01 00:16:55;;;;;;;7.13;1.30;;;;;;;15.92;87.64;99035.59;4953759;29;20028;-51
2022/07/01 00:19:21;;;;;;;13.30;1.73;;;;;;;15.92;88.10;99037.44;4952330;29;20074;-51
2022/07/01 00:21:47;;;;;;;9.98;1.40;;;;;;;15.97;88.71;99027.78;4952507;29;20046;-51
2022/07/01 00:24:12;;;;;;;14.95;1.75;;;;;;;16.14;89.25;99033.22;4952330;29;20130;-51
2022/07/01 00:26:38;;;;;;;10.75;1.48;;;;;;;16.25;89.25;99022.88;4952260;29;20112;-51
2022/07/01 00:29:04;;;;;;;6.28;2.30;;;;;;;16.28;89.14;99012.66;4953564;29;20024;-51
2022/07/01 00:31:30;;;;;;;10.90;2.22;;;;;;;16.24;89.05;99029.19;4951931;29;20058;-50
2022/07/01 00:33:55;;;;;;;10.10;1.80;;;;;;;16.21;89.02;99056.16;4952307;29;20023;-51
2022/07/01 00:36:21;;;;;;;16.60;1.80;;;;;;;16.15;88.77;99063.16;4953509;28;20026;-51
2022/07/01 00:38:47;;;;;;;8.27;1.02;;;;;;;16.05;88.59;99074.31;4952166;29;20110;-52
2022/07/01 00:41:12;;;;;;;8.18;2.15;;;;;;;16.00;89.03;99055.66;4953424;29;20106;-51
2022/07/01 00:43:39;;;;;;;5.10;0.98;;;;;;;16.11;89.14;99024.94;4953547;29;20031;-50
2022/07/01 00:46:05;;;;;;;5.38;0.90;;;;;;;16.06;88.67;99012.38;4953474;29;20023;-51
2022/07/01 00:48:36;;;;;;;8.45;0.82;;;;;;;15.99;88.28;98998.44;4952162;29;20126;-51
2022/07/01 00:51:02;;;;;;;9.95;1.63;;;;;;;15.89;88.68;98992.91;4953376;28;20027;-51
2022/07/01 00:53:29;;;;;;;11.95;1.40;;;;;;;15.78;88.70;98984.69;4951926;29;20027;-51
2022/07/01 00:55:55;;;;;;;17.08;2.63;;;;;;;15.74;89.63;98980.91;4953394;28;20050;-51
2022/07/01 00:58:21;;;;;;;15.80;2.42;;;;;;;15.96;90.55;98986.47;4952110;29;20039;-51
2022/07/01 01:00:47;;;;;;;5.15;1.10;;;;;;;16.14;90.60;98976.81;4953249;28;20584;-51
2022/07/01 01:03:13;;;;;;;27.88;1.88;;;;;;;15.79;88.66;98969.63;4951953;29;20038;-51
2022/07/01 01:05:40;;;;;;;9.90;1.15;;;;;;;15.76;89.77;98976.19;4951941;29;20431;-50
2022/07/01 01:08:09;;;;;;;5.90;1.10;;;;;;;15.69;89.39;98991.31;4955536;28;20027;-51
2022/07/01 01:10:39;;;;;;;17.15;1.75;;;;;;;15.68;90.03;98981.78;4956739;28;20118;-50
2022/07/01 01:13:05;;;;;;;6.53;0.70;;;;;;;15.74;90.35;98980.09;4955320;29;20023;-51
2022/07/01 01:15:31;;;;;;;8.85;1.08;;;;;;;15.69;89.79;98985.22;4955350;29;20026;-51
2022/07/01 01:17:58;;;;;;;6.93;2.08;;;;;;;15.66;90.00;99007.66;4956664;28;20027;-51
2022/07/01 01:20:23;;;;;;;12.95;1.70;;;;;;;15.65;90.06;99045.72;4955587;29;20027;-51
2022/07/01 01:22:49;;;;;;;8.70;1.30;;;;;;;15.73;90.49;99060.50;4955177;29;20027;-51
2022/07/01 01:25:16;;;;;;;4.00;0.70;;;;;;;15.81;90.36;99051.44;4955257;29;20091;-50
2022/07/01 01:27:42;;;;;;;14.63;1.63;;;;;;;15.50;89.11;99066.47;4955146;29;20498;-51
2022/07/01 01:30:11;;;;;;;12.35;4.15;;;;;;;15.49;90.18;99096.59;4954775;28;20031;-51
2022/07/01 01:32:37;;;;;;;6.13;1.30;;;;;;;15.61;90.65;99101.94;4955109;29;20557;-51
2022/07/01 01:35:04;;;;;;;7.18;1.30;;;;;;;15.66;91.14;99089.69;4954862;29;20530;-50
2022/07/01 01:37:30;;;;;;;10.57;3.65;;;;;;;15.77;91.45;99072.25;4956362;28;20106;-51
2022/07/01 01:39:55;;;;;;;10.82;2.10;;;;;;;15.85;91.40;99039.38;4954985;29;20110;-51
2022/07/01 01:42:21;;;;;;;6.57;1.05;;;;;;;15.98;91.57;99020.66;4954921;29;20640;-51
2022/07/01 01:44:47;;;;;;;22.35;2.50;;;;;;;15.85;90.13;99003.13;4954874;29;20038;-51
2022/07/01 01:47:13;;;;;;;11.52;2.47;;;;;;;15.66;90.07;98967.97;4954741;29;20031;-51
2022/07/01 01:49:38;;;;;;;9.40;6.03;;;;;;;15.90;91.68;98946.88;4956122;28;20118;-52
2022/07/01 01:52:05;;;;;;;14.82;3.58;;;;;;;15.90;91.03;98928.34;4956079;29;20039;-52
2022/07/01 01:54:30;;;;;;;5.68;2.05;;;;;;;15.76;90.43;98954.22;4955837;28;20020;-51
2022/07/01 01:56:56;;;;;;;5.95;1.15;;;;;;;15.51;89.57;98984.25;4954608;29;20040;-51
2022/07/01 01:59:22;;;;;;;8.27;3.50;;;;;;;15.41;90.25;98981.31;4954589;29;20402;-53
2022/07/01 02:01:47;;;;;;;4.50;1.27;;;;;;;15.43;90.81;98995.13;4954468;29;20082;-52
2022/07/01 02:04:13;;;;;;;6.40;1.85;;;;;;;15.45;91.19;99039.88;4954576;29;20031;-52
2022/07/01 02:06:42;;;;;;;6.90;1.08;;;;;;;15.56;91.82;99036.50;4955687;28;20039;-52
2022/07/01 02:09:08;;;;;;;6.25;1.10;;;;;;;15.62;91.89;99025.00;4970434;28;20138;-52
2022/07/01 02:11:35;;;;;;;6.22;0.93;;;;;;;15.69;91.90;99015.13;4954313;29;20023;-52
2022/07/01 02:14:01;;;;;;;5.00;1.27;;;;;;;15.74;91.64;98999.41;4955524;28;20429;-52
2022/07/01 02:16:27;;;;;;;6.60;1.08;;;;;;;15.82;91.46;98984.25;4955543;28;20024;-52
2022/07/01 02:18:53;;;;;;;8.48;2.05;;;;;;;15.67;90.59;98953.69;4954494;28;20084;-51
2022/07/01 02:21:19;;;;;;;8.05;2.67;;;;;;;15.77;91.21;98945.22;4954211;29;20256;-51
2022/07/01 02:23:44;;;;;;;6.30;0.75;;;;;;;15.70;90.80;98965.69;4955447;28;20457;-51
2022/07/01 02:26:10;;;;;;;5.03;1.35;;;;;;;15.70;90.90;99008.81;4954083;29;20019;-52
2022/07/01 02:28:36;;;;;;;11.43;1.52;;;;;;;15.72;91.42;99014.72;4955308;29;20058;-51
2022/07/01 02:31:04;;;;;;;2.50;0.50;;;;;;;15.72;90.95;99027.13;4954964;28;20043;-52
2022/07/01 02:33:31;;;;;;;7.47;5.22;;;;;;;15.51;90.05;99028.41;4955156;28;20031;-50
2022/07/01 02:35:57;;;;;;;6.50;1.20;;;;;;;15.41;90.10;99004.31;4953881;29;20067;-51
2022/07/01 02:38:22;;;;;;;10.52;3.13;;;;;;;15.45;90.76;98979.84;4953933;29;20493;-50
2022/07/01 02:40:48;;;;;;;11.55;2.15;;;;;;;15.84;91.75;98916.81;4955093;28;20083;-52
2022/07/01 02:43:15;;;;;;;13.20;2.28;;;;;;;16.32;92.26;98915.00;4955060;29;20038;-50
2022/07/01 02:45:42;;;;;;;5.90;0.90;;;;;;;16.44;90.58;98987.31;4955223;28;20078;-51
2022/07/01 02:48:07;;;;;;;5.32;1.25;;;;;;;16.21;89.16;98997.88;4953781;29;20074;-50
2022/07/01 02:50:33;;;;;;;3.13;0.65;;;;;;;16.07;88.87;98992.81;4954967;28;20020;-50
2022/07/01 02:52:59;;;;;;;3.20;1.08;;;;;;;15.83;87.95;98993.81;4953634;29;20386;-50
2022/07/01 02:55:25;;;;;;;11.32;1.33;;;;;;;15.72;88.14;99006.78;4955039;29;20031;-51
2022/07/01 02:57:51;;;;;;;3.42;0.80;;;;;;;15.83;88.89;99001.75;4953494;29;20034;-51
2022/07/01 03:00:19;;;;;;;4.60;0.80;;;;;;;15.87;88.81;99005.53;4954798;29;20031;-51
2022/07/01 03:02:44;;;;;;;2.75;0.60;;;;;;;15.89;88.51;99019.34;4954734;28;20020;-51
2022/07/01 03:05:11;;;;;;;6.85;1.00;;;;;;;15.86;88.01;99027.78;4953373;29;20034;-51
2022/07/01 03:07:38;;;;;;;8.00;1.63;;;;;;;15.87;87.95;99039.94;4954610;28;20023;-51
2022/07/01 03:10:05;;;;;;;1.90;0.40;;;;;;;15.88;87.55;99042.38;4954629;28;20524;-51
2022/07/01 03:12:34;;;;;;;8.13;0.55;;;;;;;15.85;87.34;99044.66;4953227;29;20031;-51
2022/07/01 03:15:09;;;;;;;2.60;0.60;;;;;;;15.77;86.84;99038.69;4954430;28;20050;-51
2022/07/01 03:17:36;;;;;;;8.25;0.50;;;;;;;15.65;86.60;99015.81;4954602;28;20034;-50
2022/07/01 03:20:03;;;;;;;4.90;0.85;;;;;;;15.51;86.37;98978.97;4954316;28;20015;-52
2022/07/01 03:22:31;;;;;;;5.00;1.27;;;;;;;15.52;86.57;98953.31;4954383;29;20071;-52
2022/07/01 03:24:58;;;;;;;2.50;0.73;;;;;;;15.48;86.34;98912.47;4953082;29;20505;-52
2022/07/01 03:27:25;;;;;;;3.90;0.63;;;;;;;15.42;86.22;98945.94;4954355;28;20110;-52
2022/07/01 03:29:51;;;;;;;3.03;0.47;;;;;;;15.55;87.10;98984.59;4952672;28;20162;-51
2022/07/01 03:32:17;;;;;;;8.63;1.50;;;;;;;15.67;86.89;98968.75;4952655;29;20051;-52
2022/07/01 03:34:48;;;;;;;6.50;1.15;;;;;;;15.97;87.19;98960.78;4952791;29;20032;-52
2022/07/01 03:37:15;;;;;;;6.45;1.27;;;;;;;16.33;87.16;98972.22;4952911;29;20027;-53
2022/07/01 03:39:41;;;;;;;6.65;2.10;;;;;;;16.37;85.26;98984.75;4954047;29;20062;-51
2022/07/01 03:42:08;;;;;;;10.35;2.00;;;;;;;16.47;85.42;98981.53;4952766;29;20053;-51
2022/07/01 03:44:34;;;;;;;7.75;1.45;;;;;;;16.70;85.43;98972.78;4952734;29;20034;-52
2022/07/01 03:47:00;;;;;;;9.88;2.22;;;;;;;16.93;85.01;98973.78;4952660;29;20170;-52
2022/07/01 03:49:26;;;;;;;2.35;0.40;;;;;;;16.95;83.37;98972.50;4953963;28;20098;-52
2022/07/01 03:51:52;;;;;;;5.05;0.80;;;;;;;16.56;82.22;98972.22;4953941;28;20489;-52
2022/07/01 03:54:30;;;;;;;7.75;1.30;;;;;;;16.20;82.72;98983.03;4952539;29;20042;-52
2022/07/01 03:57:00;;;;;;;10.30;1.13;;;;;;;16.13;84.05;98985.78;4953954;28;20034;-52
2022/07/01 03:59:28;;;;;;;8.52;2.28;;;;;;;16.30;84.64;98985.94;4954179;28;20405;-51
2022/07/01 04:01:54;;;;;;;13.70;1.77;;;;;;;16.57;84.66;98987.06;4952498;29;20028;-52
2022/07/01 04:04:21;;;;;;;10.15;1.65;;;;;;;16.68;84.00;98976.66;4953814;28;20102;-52
2022/07/01 04:06:47;;;;;;;10.15;1.23;;;;;;;16.76;83.53;98982.44;4953783;28;20049;-52
2022/07/01 04:09:16;;;;;;;14.70;1.52;;;;;;;16.78;83.33;98975.06;4968523;28;20035;-52
2022/07/01 04:11:43;;;;;;;17.15;1.50;;;;;;;16.86;82.32;98976.59;4953701;28;20027;-52
2022/07/01 04:14:10;;;;;;;8.85;1.40;;;;;;;16.80;82.79;98974.00;4952312;29;20105;-52
2022/07/01 04:16:36;;;;;;;3.85;0.98;;;;;;;17.04;83.05;98970.28;4952373;29;20027;-52
2022/07/01 04:19:02;;;;;;;5.05;0.60;;;;;;;16.96;81.45;98975.94;4952387;29;20023;-52
2022/07/01 04:24:13;;;;;;;5.93;0.80;;;;;;;16.01;79.88;98975.19;4953665;29;20401;-51
2022/07/01 04:26:40;;;;;;;3.35;0.57;;;;;;;15.69;81.51;98974.63;4952346;29;20038;-51
2022/07/01 04:29:07;;;;;;;11.98;2.45;;;;;;;15.54;82.84;98975.88;4953630;28;20038;-52
2022/07/01 04:31:34;;;;;;;1.27;0.77;;;;;;;15.83;84.02;98977.91;4951997;29;20047;-52
2022/07/01 04:34:00;;;;;;;7.97;1.17;;;;;;;15.84;82.10;98969.75;4952169;29;20039;-52
2022/07/01 04:36:26;;;;;;;5.50;1.48;;;;;;;15.84;82.59;98971.59;4952267;29;20054;-51
2022/07/01 04:38:52;;;;;;;5.65;1.40;;;;;;;15.82;82.23;98976.31;4952292;29;20031;-51
2022/07/01 04:44:02;;;;;;;6.82;0.98;;;;;;;15.99;82.01;98974.59;4957337;29;20097;-51
2022/07/01 04:46:28;;;;;;;6.82;0.90;;;;;;;15.97;82.35;98966.88;4939933;29;20035;-51
2022/07/01 04:48:54;;;;;;;5.25;0.93;;;;;;;16.00;82.44;98970.94;4955880;29;20032;-51
2022/07/01 04:51:20;;;;;;;3.38;1.05;;;;;;;16.12;82.13;98978.91;4956075;29;20121;-52
2022/07/01 04:53:46;;;;;;;8.77;2.40;;;;;;;16.16;82.08;98980.06;4955700;29;20118;-52
2022/07/01 04:56:11;;;;;;;10.27;1.77;;;;;;;16.16;82.17;98983.50;4957047;28;20034;-51
2022/07/01 04:58:37;;;;;;;7.25;1.00;;;;;;;16.27;82.34;98989.81;4956989;29;20420;-51
2022/07/01 05:01:03;;;;;;;13.98;1.30;;;;;;;16.24;81.86;98986.81;4957031;28;20027;-51
2022/07/01 05:03:28;;;;;;;9.52;2.25;;;;;;;16.12;81.52;98990.28;4955652;29;20125;-51
2022/07/01 05:05:54;;;;;;;11.15;1.75;;;;;;;16.23;82.22;98990.53;4955557;29;20027;-51
2022/07/01 05:08:20;;;;;;;6.30;1.42;;;;;;;16.46;82.70;98998.47;4955492;29;20027;-51
2022/07/01 05:10:46;;;;;;;8.35;1.33;;;;;;;16.75;81.63;98999.38;4955465;29;20404;-51
2022/07/01 05:13:12;;;;;;;11.23;2.58;;;;;;;16.81;80.86;98996.84;4955335;29;20167;-51
2022/07/01 05:15:38;;;;;;;9.23;0.95;;;;;;;16.98;80.90;99008.34;4955368;29;20387;-52
2022/07/01 05:23:32;;;;;;;3.72;0.75;;;;;;;16.80;79.01;99001.31;4956605;29;20050;-52
2022/07/01 05:25:58;;;;;;;4.35;1.10;;;;;;;16.77;79.71;99009.75;4956503;29;20019;-52
2022/07/01 05:28:23;;;;;;;5.72;1.05;;;;;;;16.96;80.30;99005.13;4956540;28;20065;-52
2022/07/01 05:30:49;;;;;;;9.40;1.30;;;;;;;17.16;79.36;99007.38;4954913;29;20164;-52
2022/07/01 05:33:14;;;;;;;9.52;1.60;;;;;;;17.60;78.67;99009.53;4955005;29;20050;-52
2022/07/01 05:35:40;;;;;;;10.35;1.25;;;;;;;18.05;77.46;99006.91;4955001;29;20038;-51
2022/07/01 05:38:06;;;;;;;3.08;1.17;;;;;;;18.45;75.68;99008.56;4954990;29;20027;-51
2022/07/01 05:40:31;;;;;;;5.63;1.35;;;;;;;18.68;75.55;99010.19;4954848;29;20039;-51
2022/07/01 05:42:57;;;;;;;25.65;5.65;;;;;;;18.83;74.98;99011.50;4954901;29;20027;-52
2022/07/01 05:45:23;;;;;;;8.00;1.48;;;;;;;19.04;73.27;99007.25;4956112;29;20027;-52
2022/07/01 05:47:49;;;;;;;4.85;1.52;;;;;;;19.14;73.29;99010.03;4956077;29;20485;-52
2022/07/01 05:50:15;;;;;;;8.55;1.85;;;;;;;19.20;73.04;99000.25;4954660;29;20493;-51
2022/07/01 05:52:43;;;;;;;4.55;1.17;;;;;;;19.20;72.39;99001.03;4954896;28;20020;-51
2022/07/01 05:55:10;;;;;;;9.25;2.85;;;;;;;19.92;69.93;99005.25;4954528;29;20379;-52
2022/07/01 05:57:36;;;;;;;4.55;0.90;;;;;;;22.32;63.60;98993.09;4954584;29;20429;-52
2022/07/01 06:00:03;;;;;;;3.92;0.73;;;;;;;24.74;56.99;98987.06;4954595;29;20039;-50
2022/07/01 06:02:29;;;;;;;7.47;1.95;;;;;;;25.20;54.45;98979.22;4955824;28;20035;-49
2022/07/01 06:04:55;;;;;;;5.47;1.42;;;;;;;25.29;53.25;98982.91;4954461;29;20045;-50
2022/07/01 06:07:20;;;;;;;3.50;0.90;;;;;;;25.59;53.41;98980.84;4954426;29;20103;-50
2022/07/01 06:09:46;;;;;;;2.40;0.40;;;;;;;25.84;51.54;98990.41;4954442;29;20487;-49
2022/07/01 06:12:12;;;;;;;5.40;0.60;;;;;;;25.49;51.23;98989.88;4954304;29;20491;-50
2022/07/01 06:14:38;;;;;;;3.40;0.63;;;;;;;24.22;53.41;98997.50;4955521;28;20039;-50
2022/07/01 06:17:04;;;;;;;3.42;0.32;;;;;;;23.02;55.59;99003.91;4954487;29;20434;-50
2022/07/01 06:19:30;;;;;;;6.07;0.93;;;;;;;22.10;58.44;99010.19;4954205;29;20032;-49
2022/07/01 06:21:56;;;;;;;0.82;0.50;;;;;;;21.35;60.34;99005.28;4955442;29;20024;-50
2022/07/01 06:24:22;;;;;;;4.85;0.90;;;;;;;20.68;61.70;99001.50;4955438;29;20087;-50
2022/07/01 06:26:48;;;;;;;8.18;0.80;;;;;;;20.25;63.74;99011.38;4955357;28;20027;-50
2022/07/01 06:29:13;;;;;;;5.97;0.93;;;;;;;20.06;64.59;99002.16;4955375;29;20027;-50
2022/07/01 06:31:39;;;;;;;2.13;0.55;;;;;;;20.03;64.10;98998.13;4955073;28;20561;-50
2022/07/01 06:34:05;;;;;;;3.08;1.23;;;;;;;20.13;63.77;99006.22;4955140;29;20027;-49
2022/07/01 06:36:30;;;;;;;2.80;0.70;;;;;;;20.29;63.72;99009.00;4955185;29;20047;-49
2022/07/01 06:38:56;;;;;;;8.02;1.13;;;;;;;20.49;63.17;99001.13;4953839;29;20387;-50
2022/07/01 06:41:28;;;;;;;5.18;0.85;;;;;;;20.70;62.47;99014.59;4953754;29;20477;-50
2022/07/01 06:44:02;;;;;;;4.28;1.17;;;;;;;20.88;62.21;99008.81;4953805;29;20127;-49
2022/07/01 06:46:29;;;;;;;1.63;0.75;;;;;;;21.04;62.28;98999.00;4955078;28;20399;-50
2022/07/01 06:48:55;;;;;;;1.35;0.68;;;;;;;21.35;60.55;99002.59;4953695;29;20031;-49
2022/07/01 06:51:21;;;;;;;5.82;0.95;;;;;;;21.58;59.93;99005.88;4953579;29;20019;-50
2022/07/01 06:53:49;;;;;;;1.40;0.70;;;;;;;21.91;59.55;98998.41;4954839;28;20150;-50
2022/07/01 06:56:16;;;;;;;2.33;0.57;;;;;;;23.06;57.05;98999.59;4954808;28;20553;-49
2022/07/01 06:58:42;;;;;;;4.85;0.70;;;;;;;25.32;50.49;98994.94;4953515;29;20122;-50
2022/07/01 07:01:09;;;;;;;4.20;0.60;;;;;;;27.68;46.48;98987.94;4953424;29;20027;-50
2022/07/01 07:03:35;;;;;;;7.78;0.85;;;;;;;30.11;41.70;98995.13;4953401;29;20035;-50
2022/07/01 07:06:01;;;;;;;5.72;0.60;;;;;;;32.18;38.60;98989.84;4954158;28;20019;-51
2022/07/01 07:08:32;;;;;;;1.50;0.63;;;;;;;33.65;35.27;98985.44;4953293;29;20042;-50
2022/07/01 07:10:58;;;;;;;4.13;0.40;;;;;;;33.65;31.81;98988.16;4953288;29;20020;-50
2022/07/01 07:13:25;;;;;;;4.40;0.60;;;;;;;32.86;33.17;98991.25;4954425;28;20405;-49
2022/07/01 07:15:51;;;;;;;2.35;0.65;;;;;;;31.63;34.40;98994.50;4953155;29;20023;-51
2022/07/01 07:18:17;;;;;;;3.05;0.63;;;;;;;30.17;35.61;98991.13;4954441;29;20038;-50
2022/07/01 07:20:42;;;;;;;5.80;0.77;;;;;;;29.61;35.91;99001.06;4954391;28;20030;-50
2022/07/01 07:23:08;;;;;;;2.10;0.60;;;;;;;29.20;35.84;99005.84;4954374;29;20108;-50
2022/07/01 07:25:34;;;;;;;2.38;0.75;;;;;;;29.03;36.72;99003.06;4953036;29;20157;-50
2022/07/01 07:28:00;;;;;;;5.82;0.90;;;;;;;29.59;35.46;99009.50;4952994;29;20031;-50
2022/07/01 07:30:26;;;;;;;4.95;0.80;;;;;;;30.20;35.18;98997.81;4952663;29;20465;-50
2022/07/01 07:32:52;;;;;;;2.00;0.75;;;;;;;30.37;33.84;98997.78;4953009;29;20122;-48
2022/07/01 07:35:18;;;;;;;2.20;0.45;;;;;;;29.77;34.11;99002.19;4954069;29;20074;-50
2022/07/01 07:37:45;;;;;;;2.35;0.93;;;;;;;30.00;33.67;98993.88;4952867;29;20027;-50
2022/07/01 07:40:13;;;;;;;4.38;1.00;;;;;;;30.82;33.10;98999.97;4954091;28;20027;-50
2022/07/01 07:42:40;;;;;;;2.78;0.63;;;;;;;31.42;32.55;99003.44;4954164;28;20375;-49
2022/07/01 07:45:07;;;;;;;4.68;0.98;;;;;;;32.13;32.61;99000.91;4954030;28;20031;-51
2022/07/01 07:47:33;;;;;;;4.75;0.70;;;;;;;32.74;30.42;98998.28;4954065;28;20389;-50
2022/07/01 07:49:59;;;;;;;3.05;0.80;;;;;;;32.98;28.47;98996.66;4953979;28;20031;-50
2022/07/01 07:52:25;;;;;;;4.15;0.63;;;;;;;33.24;28.71;98999.00;4953913;28;20030;-50
2022/07/01 07:54:51;;;;;;;3.33;0.60;;;;;;;33.95;27.78;98992.09;4952522;29;20050;-49
2022/07/01 07:57:17;;;;;;;5.10;0.80;;;;;;;34.91;26.95;98984.69;4952550;29;20118;-50
2022/07/01 07:59:42;;;;;;;1.83;0.70;;;;;;;35.56;24.36;98994.25;4953891;28;20110;-50
2022/07/01 08:02:08;;;;;;;9.65;0.98;;;;;;;35.75;24.79;99002.44;4953780;29;20023;-50
2022/07/01 08:04:34;;;;;;;3.72;0.68;;;;;;;35.10;25.17;99002.25;4953849;29;20039;-50
2022/07/01 08:07:00;;;;;;;4.40;0.57;;;;;;;35.34;25.33;98995.78;4953714;29;20031;-50
2022/07/01 08:09:26;;;;;;;13.15;1.77;;;;;;;36.34;24.79;98999.59;4952516;29;20069;-50
2022/07/01 08:11:52;;;;;;;2.38;0.50;;;;;;;36.63;24.41;98997.34;4953787;28;20027;-50
2022/07/01 08:14:18;;;;;;;0.85;0.47;;;;;;;35.09;25.14;99006.13;4953634;29;20555;-51
2022/07/01 08:16:43;;;;;;;3.80;0.93;;;;;;;33.18;27.35;98998.50;4954043;28;20023;-50
2022/07/01 08:19:09;;;;;;;9.27;1.30;;;;;;;31.36;29.16;99015.59;4956371;29;20114;-50
2022/07/01 08:21:35;;;;;;;7.97;1.25;;;;;;;29.74;31.43;99019.09;4957639;29;20497;-49
2022/07/01 08:24:01;;;;;;;6.75;1.10;;;;;;;28.70;33.67;99014.25;4956322;29;20109;-50
2022/07/01 08:26:27;;;;;;;2.38;0.70;;;;;;;28.02;34.72;99017.06;4956308;29;20019;-49
2022/07/01 08:28:53;;;;;;;4.63;0.70;;;;;;;29.42;32.97;99015.72;4957527;28;20454;-50
2022/07/01 08:31:18;;;;;;;4.90;0.85;;;;;;;30.11;31.92;99013.31;4957252;28;20047;-49
2022/07/01 08:33:44;;;;;;;4.88;0.80;;;;;;;29.15;32.24;99014.06;4956121;29;20119;-50
2022/07/01 08:36:10;;;;;;;3.50;0.75;;;;;;;28.04;33.60;99020.25;4956052;29;20042;-50
2022/07/01 08:38:37;;;;;;;4.38;0.82;;;;;;;26.96;35.40;99024.50;4957363;28;20082;-49
2022/07/01 08:41:04;;;;;;;7.53;0.93;;;;;;;28.11;34.75;99016.31;4957310;28;20051;-49
2022/07/01 08:43:30;;;;;;;1.67;0.60;;;;;;;30.76;30.81;99025.66;4957511;28;20035;-49
2022/07/01 08:45:58;;;;;;;4.32;0.50;;;;;;;32.55;27.94;99008.94;4957173;28;20437;-50
2022/07/01 08:48:24;;;;;;;4.10;0.57;;;;;;;34.45;25.72;99010.84;4957177;28;20027;-49
2022/07/01 08:50:50;;;;;;;5.07;1.33;;;;;;;35.43;24.88;99011.94;4955838;29;20031;-51
2022/07/01 08:53:16;;;;;;;6.75;1.25;;;;;;;34.50;25.94;99016.84;4955647;29;20038;-50
2022/07/01 08:58:28;;;;;;;2.42;0.98;;;;;;;34.81;25.42;99017.97;4957138;29;20515;-50
2022/07/01 09:01:12;;;;;;;5.07;0.80;;;;;;;33.05;27.16;99021.34;4955619;29;20090;-51
2022/07/01 09:03:38;;;;;;;3.60;1.15;;;;;;;31.43;28.56;99025.91;4956957;28;20390;-49
2022/07/01 09:06:17;;;;;;;1.73;0.80;;;;;;;29.96;30.71;99036.25;4955553;29;20097;-50
2022/07/01 09:08:44;;;;;;;4.07;1.02;;;;;;;28.63;32.65;99036.34;4956885;28;20110;-50
2022/07/01 09:11:14;;;;;;;5.45;0.90;;;;;;;27.39;34.23;99040.34;4955402;29;20037;-50
2022/07/01 09:13:41;;;;;;;3.75;0.60;;;;;;;26.60;36.06;99048.63;4955356;29;20055;-49
2022/07/01 09:16:15;;;;;;;4.10;0.82;;;;;;;26.07;36.84;99047.09;4956687;28;20074;-49
2022/07/01 09:19:00;;;;;;;8.73;0.88;;;;;;;25.91;36.80;99050.00;4955537;29;20030;-50
2022/07/01 09:21:29;;;;;;;3.70;0.60;;;;;;;26.48;35.93;99047.19;4956654;29;20035;-50
2022/07/01 09:23:55;;;;;;;9.57;1.30;;;;;;;28.86;32.80;99042.44;4956530;28;20019;-50
2022/07/01 09:26:21;;;;;;;5.72;0.90;;;;;;;31.01;29.79;99044.88;4955300;29;20094;-50
2022/07/01 09:28:57;;;;;;;7.40;1.33;;;;;;;32.82;27.21;99024.56;4956018;28;20019;-49
2022/07/01 09:31:33;;;;;;;6.60;0.90;;;;;;;34.35;25.14;99023.06;4954887;29;20047;-50
2022/07/01 09:34:08;;;;;;;6.72;1.13;;;;;;;35.13;24.02;99018.69;4956292;28;20506;-50
2022/07/01 09:36:41;;;;;;;5.22;1.23;;;;;;;34.42;23.71;99021.31;4956600;28;20085;-49
2022/07/01 09:39:07;;;;;;;8.63;0.82;;;;;;;32.43;25.12;99026.75;4956272;28;20023;-49
2022/07/01 09:41:37;;;;;;;2.40;0.90;;;;;;;30.31;26.83;99028.88;4954973;29;20460;-49
2022/07/01 09:44:07;;;;;;;6.43;1.40;;;;;;;28.95;29.52;99033.56;4956195;28;20034;-49
2022/07/01 09:46:33;;;;;;;7.53;1.05;;;;;;;30.19;28.87;99029.50;4956384;28;20019;-50
2022/07/01 09:49:00;;;;;;;5.50;1.05;;;;;;;32.65;26.07;99024.78;4954808;29;20142;-50
2022/07/01 09:51:26;;;;;;;11.75;1.10;;;;;;;33.99;25.01;99017.47;4956030;29;20539;-50
2022/07/01 09:53:52;;;;;;;3.58;0.57;;;;;;;34.94;22.98;99018.66;4955892;28;20035;-49
2022/07/01 09:56:19;;;;;;;3.88;0.98;;;;;;;33.81;23.62;99018.94;4954653;29;20110;-50
2022/07/01 09:58:45;;;;;;;3.50;0.80;;;;;;;32.08;25.21;99029.09;4954656;29;20596;-50
2022/07/01 10:01:14;;;;;;;6.18;1.58;;;;;;;30.77;26.14;99035.41;4955831;28;20102;-50
2022/07/01 10:03:41;;;;;;;8.02;0.93;;;;;;;29.91;27.82;99029.09;4955823;28;20035;-50
2022/07/01 10:06:07;;;;;;;21.67;1.95;;;;;;;29.79;28.44;99027.03;4955815;28;20237;-50
2022/07/01 10:08:56;;;;;;;4.15;0.88;;;;;;;31.91;26.28;99016.44;4954503;29;20452;-48
2022/07/01 10:11:41;;;;;;;8.45;1.60;;;;;;;33.67;24.08;99022.06;4955925;29;20032;-50
2022/07/01 10:14:07;;;;;;;;;;;;;;;35.17;23.90;99022.31;4955998;28;20485;-50
2022/07/01 10:16:36;;;;;;;4.25;0.98;;;;;;;34.88;21.63;99020.09;4954302;29;19918;-50
2022/07/01 10:19:26;;;;;;;10.63;0.80;;;;;;;32.62;23.56;99020.81;4970340;28;20020;-50
2022/07/01 10:21:57;;;;;;;2.72;0.68;;;;;;;30.99;25.66;99026.22;4942810;29;20043;-49
2022/07/01 10:24:25;;;;;;;2.03;0.77;;;;;;;30.21;27.13;99019.16;4955487;28;20074;-50
2022/07/01 10:26:52;;;;;;;4.13;0.60;;;;;;;31.47;25.81;99032.28;4955371;28;20023;-50
2022/07/01 10:29:33;;;;;;;3.88;0.90;;;;;;;32.68;24.34;99023.31;4955420;28;20081;-50
2022/07/01 10:32:08;;;;;;;1.75;0.55;;;;;;;34.11;23.28;99019.34;4955186;28;20285;-50
2022/07/01 10:34:36;;;;;;;9.50;0.85;;;;;;;35.41;21.38;99026.72;4953962;29;20092;-50
2022/07/01 10:37:11;;;;;;;5.93;0.90;;;;;;;35.48;21.04;99015.16;4955199;28;20111;-50
2022/07/01 10:40:01;;;;;;;2.22;0.50;;;;;;;33.87;22.67;99023.00;4953077;28;20110;-50
2022/07/01 10:42:32;;;;;;;1.65;0.50;;;;;;;32.65;24.67;99030.22;4953914;29;20482;-50
2022/07/01 10:45:09;;;;;;;1.60;0.70;;;;;;;31.78;24.92;99028.38;4955002;28;20028;-50
2022/07/01 10:47:37;;;;;;;3.40;0.77;;;;;;;30.71;25.98;99033.19;4955020;28;20027;-49
2022/07/01 10:50:15;;;;;;;7.95;1.00;;;;;;;29.63;26.69;99034.78;4953644;29;20421;-49
2022/07/01 10:53:04;;;;;;;6.10;0.75;;;;;;;28.71;27.67;99050.97;4955252;28;20441;-49
2022/07/01 10:55:45;;;;;;;2.80;0.52;;;;;;;29.12;28.28;99043.63;4945976;29;20043;-49
2022/07/01 10:58:11;;;;;;;3.03;0.47;;;;;;;29.98;26.85;99034.81;4954897;28;20031;-49
2022/07/01 11:00:41;;;;;;;4.40;0.70;;;;;;;29.85;26.83;99035.78;4953510;29;20023;-49
2022/07/01 11:03:13;;;;;;;4.20;1.02;;;;;;;30.22;26.85;99034.28;4953545;29;20039;-49
2022/07/01 11:05:40;;;;;;;8.32;0.95;;;;;;;31.73;25.64;99032.09;4954744;28;20031;-50
2022/07/01 11:08:07;;;;;;;2.25;0.57;;;;;;;33.16;22.33;99029.88;4954690;28;20030;-49
2022/07/01 11:10:33;;;;;;;4.32;0.57;;;;;;;33.81;22.07;99019.72;4954660;28;20432;-49
2022/07/01 11:13:01;;;;;;;2.97;0.75;;;;;;;34.32;21.00;99027.28;4953221;29;20078;-49
2022/07/01 11:15:29;;;;;;;14.18;1.30;;;;;;;34.95;20.10;99021.03;4953117;29;20034;-50
2022/07/01 11:17:57;;;;;;;3.72;0.80;;;;;;;34.95;19.73;99031.13;4953146;29;20109;-50
2022/07/01 11:20:25;;;;;;;7.95;0.95;;;;;;;34.10;20.56;99023.19;4953116;29;20028;-51
2022/07/01 11:22:51;;;;;;;4.22;0.95;;;;;;;34.42;21.03;99021.31;4954373;28;20035;-51
2022/07/01 11:25:19;;;;;;;4.25;0.60;;;;;;;35.04;20.68;99012.66;4953027;29;20039;-50
2022/07/01 11:27:52;;;;;;;9.60;0.80;;;;;;;35.53;20.34;99014.88;4954256;28;20070;-51
2022/07/01 11:30:19;;;;;;;5.30;0.80;;;;;;;35.84;19.66;99010.44;4954081;28;20098;-47
2022/07/01 11:32:51;;;;;;;3.08;0.88;;;;;;;36.10;19.44;99012.47;4952969;29;20066;-48
2022/07/01 11:41:04;;;;;;;20.92;1.50;;;;;;;35.02;20.52;99012.22;4953378;29;20083;-48
2022/07/01 11:43:36;;;;;;;9.80;0.90;;;;;;;33.50;20.48;99017.66;4954067;28;20062;-48
2022/07/01 11:46:03;;;;;;;8.55;1.10;;;;;;;32.26;21.88;99016.13;4952769;29;20027;-50
2022/07/01 11:48:36;;;;;;;14.70;1.42;;;;;;;32.60;22.33;99014.16;4954015;28;20031;-50
2022/07/01 11:51:09;;;;;;;11.02;1.42;;;;;;;32.29;22.93;99012.72;4953834;28;20074;-49
2022/07/01 11:53:36;;;;;;;16.98;1.27;;;;;;;30.77;23.77;99024.56;4953978;28;20399;-49